createdAt,value
2018-03-08T00:01:54.680Z,97.00
2018-03-08T00:04:20.832Z,97.00
2018-03-08T00:06:46.942Z,97.10
2018-03-08T00:09:13.052Z,97.10
2018-03-08T00:11:45.197Z,97.10
2018-03-08T00:14:11.318Z,97.30
2018-03-08T00:16:38.189Z,97.10
2018-03-08T00:19:04.385Z,97.00
2018-03-08T00:21:30.535Z,97.00
2018-03-08T00:23:56.631Z,96.90
2018-03-08T00:26:22.738Z,97.00
2018-03-08T00:28:52.592Z,96.70
2018-03-08T00:31:19.433Z,96.70
2018-03-08T00:33:46.295Z,96.70
2018-03-08T00:36:13.333Z,96.80
2018-03-08T00:38:39.552Z,96.80
2018-03-08T00:41:05.646Z,96.70
2018-03-08T00:43:32.512Z,96.70
2018-03-08T00:45:59.168Z,96.70
2018-03-08T00:48:25.272Z,96.80
2018-03-08T00:50:51.414Z,96.80
2018-03-08T00:53:18.594Z,96.50
2018-03-08T00:55:44.766Z,96.50
2018-03-08T00:58:10.885Z,96.70
2018-03-08T01:00:37.163Z,96.90
2018-03-08T01:03:03.279Z,97.00
2018-03-08T01:05:29.432Z,97.00
2018-03-08T01:07:55.554Z,97.10
2018-03-08T01:10:21.682Z,97.20
2018-03-08T01:12:47.796Z,97.30
2018-03-08T01:15:14.657Z,97.40
2018-03-08T01:17:40.887Z,97.40
2018-03-08T01:20:08.899Z,97.80
2018-03-08T01:22:35.001Z,97.80
2018-03-08T01:25:01.103Z,98.00
2018-03-08T01:27:27.293Z,97.90
2018-03-08T01:29:54.237Z,98.00
2018-03-08T01:32:21.110Z,98.30
2018-03-08T01:34:47.973Z,98.20
2018-03-08T01:37:14.140Z,98.20
2018-03-08T01:39:41.045Z,98.30
2018-03-08T01:42:07.901Z,98.20
2018-03-08T01:44:34.812Z,98.60
2018-03-08T01:47:01.336Z,98.50
2018-03-08T01:49:28.163Z,98.30
2018-03-08T01:52:07.452Z,98.40
2018-03-08T01:54:33.574Z,98.30
2018-03-08T01:56:59.687Z,98.40
2018-03-08T01:59:26.541Z,98.40
2018-03-08T02:01:53.389Z,98.30
2018-03-08T02:04:19.486Z,98.20
2018-03-08T02:06:45.587Z,98.20
2018-03-08T02:09:12.466Z,98.30
2018-03-08T02:11:38.568Z,98.30
2018-03-08T02:14:04.659Z,98.20
2018-03-08T02:16:30.749Z,98.60
2018-03-08T02:18:58.003Z,98.30
2018-03-08T02:21:24.094Z,98.20
2018-03-08T02:23:50.203Z,98.30
2018-03-08T02:26:17.387Z,98.20
2018-03-08T02:28:43.508Z,98.20
2018-03-08T02:31:09.609Z,98.20
2018-03-08T02:33:35.722Z,98.10
2018-03-08T02:36:01.850Z,97.90
2018-03-08T02:38:27.959Z,97.90
2018-03-08T02:40:54.801Z,97.90
2018-03-08T02:43:23.336Z,97.90
2018-03-08T02:45:49.454Z,97.90
2018-03-08T02:48:15.549Z,97.70
2018-03-08T02:50:41.665Z,97.70
2018-03-08T02:53:07.792Z,97.90
2018-03-08T02:55:33.891Z,97.90
2018-03-08T02:58:00.013Z,97.80
2018-03-08T03:00:26.213Z,97.80
2018-03-08T03:02:52.326Z,97.70
2018-03-08T03:05:18.460Z,97.70
2018-03-08T03:07:44.582Z,97.70
2018-03-08T03:10:10.724Z,97.80
2018-03-08T03:12:37.564Z,97.80
2018-03-08T03:15:03.676Z,97.80
2018-03-08T03:17:29.764Z,97.50
2018-03-08T03:19:56.593Z,97.50
2018-03-08T03:22:22.708Z,97.50
2018-03-08T03:24:49.549Z,97.40
2018-03-08T03:27:15.692Z,97.40
2018-03-08T03:29:41.792Z,97.40
2018-03-08T03:32:07.877Z,97.50
2018-03-08T03:34:34.064Z,97.40
2018-03-08T03:37:00.150Z,97.20
2018-03-08T03:39:26.245Z,97.30
2018-03-08T03:41:52.333Z,97.30
2018-03-08T03:44:18.432Z,97.20
2018-03-08T03:46:44.602Z,97.20
2018-03-08T03:49:10.713Z,97.30
2018-03-08T03:51:36.816Z,97.20
2018-03-08T03:54:03.663Z,97.20
2018-03-08T03:56:29.766Z,97.20
2018-03-08T03:58:55.871Z,97.10
2018-03-08T04:01:21.989Z,97.00
2018-03-08T04:03:48.828Z,97.00
2018-03-08T04:06:14.962Z,97.00
2018-03-08T04:08:41.084Z,96.90
2018-03-08T04:11:07.196Z,96.70
2018-03-08T04:13:33.284Z,96.80
2018-03-08T04:15:59.389Z,96.90
2018-03-08T04:18:25.500Z,97.20
2018-03-08T04:20:51.600Z,96.80
2018-03-08T04:23:17.740Z,96.90
2018-03-08T04:25:43.888Z,96.80
2018-03-08T04:28:10.748Z,96.80
2018-03-08T04:30:37.580Z,96.80
2018-03-08T04:33:03.899Z,96.70
2018-03-08T04:35:30.025Z,96.80
2018-03-08T04:37:56.152Z,96.80
2018-03-08T04:40:22.308Z,96.80
2018-03-08T04:42:48.392Z,96.50
2018-03-08T04:45:14.494Z,96.30
2018-03-08T04:47:40.738Z,96.60
2018-03-08T04:50:06.835Z,96.60
2018-03-08T04:52:32.972Z,96.70
2018-03-08T04:54:59.116Z,96.70
2018-03-08T04:57:25.268Z,96.40
2018-03-08T04:59:51.365Z,96.20
2018-03-08T05:02:25.515Z,96.50
2018-03-08T05:04:51.819Z,96.20
2018-03-08T05:07:18.124Z,96.30
2018-03-08T05:09:44.504Z,96.30
2018-03-08T05:12:10.908Z,96.40
2018-03-08T05:14:37.066Z,96.50
2018-03-08T05:17:03.390Z,96.50
2018-03-08T05:19:30.220Z,96.40
2018-03-08T05:21:56.511Z,96.40
2018-03-08T05:24:22.820Z,96.20
2018-03-08T05:26:49.397Z,96.10
2018-03-08T05:29:15.560Z,96.10
2018-03-08T05:31:41.725Z,96.20
2018-03-08T05:34:08.416Z,96.40
2018-03-08T05:36:34.548Z,96.40
2018-03-08T05:39:00.696Z,96.30
2018-03-08T05:41:26.769Z,96.50
2018-03-08T05:43:53.080Z,96.40
2018-03-08T05:46:19.372Z,96.20
2018-03-08T05:48:45.689Z,96.10
2018-03-08T05:51:11.976Z,96.20
2018-03-08T05:53:39.008Z,96.20
2018-03-08T05:56:05.108Z,96.20
2018-03-08T05:58:31.217Z,96.60
2018-03-08T06:00:58.064Z,96.20
2018-03-08T06:03:24.914Z,96.70
2018-03-08T06:05:51.016Z,96.40
2018-03-08T06:08:18.045Z,96.50
2018-03-08T06:10:44.403Z,96.30
2018-03-08T06:13:10.492Z,96.50
2018-03-08T06:15:36.668Z,96.40
2018-03-08T06:18:02.778Z,96.40
2018-03-08T06:20:29.620Z,96.30
2018-03-08T06:22:55.732Z,96.30
2018-03-08T06:25:21.843Z,96.60
2018-03-08T06:27:48.151Z,96.30
2018-03-08T06:30:14.548Z,96.20
2018-03-08T06:32:40.651Z,96.30
2018-03-08T06:35:12.784Z,96.20
2018-03-08T06:37:38.908Z,96.20
2018-03-08T06:40:05.024Z,96.30
2018-03-08T06:42:31.122Z,96.40
2018-03-08T06:44:57.224Z,96.40
2018-03-08T06:47:23.392Z,96.40
2018-03-08T06:49:49.533Z,96.60
2018-03-08T06:52:19.642Z,96.70
2018-03-08T06:54:45.772Z,96.80
2018-03-08T06:57:12.624Z,96.40
2018-03-08T06:59:39.476Z,96.30
2018-03-08T07:02:05.570Z,96.30
2018-03-08T07:04:31.685Z,96.50
2018-03-08T07:06:58.527Z,96.20
2018-03-08T07:09:28.381Z,96.20
2018-03-08T07:11:54.476Z,96.20
2018-03-08T07:14:20.608Z,95.90
2018-03-08T07:16:47.444Z,96.00
2018-03-08T07:19:13.540Z,96.00
2018-03-08T07:21:39.636Z,96.10
2018-03-08T07:24:05.747Z,96.00
2018-03-08T07:26:33.817Z,96.00
2018-03-08T07:29:00.090Z,96.10
2018-03-08T07:31:26.419Z,96.00
2018-03-08T07:33:53.464Z,96.00
2018-03-08T07:36:19.784Z,96.00
2018-03-08T07:38:45.900Z,95.90
2018-03-08T07:41:12.236Z,96.00
2018-03-08T07:43:40.075Z,96.00
2018-03-08T07:46:06.388Z,96.00
2018-03-08T07:48:33.427Z,95.80
2018-03-08T07:50:59.520Z,95.80
2018-03-08T07:53:25.621Z,96.10
2018-03-08T07:55:51.707Z,95.80
2018-03-08T07:58:18.093Z,95.80
2018-03-08T08:00:44.215Z,95.80
2018-03-08T08:03:15.201Z,95.80
2018-03-08T08:05:53.631Z,95.80
2018-03-08T08:08:44.746Z,95.60
2018-03-08T08:11:10.862Z,95.60
2018-03-08T08:13:37.709Z,95.50
2018-03-08T08:16:03.828Z,95.50
2018-03-08T08:18:29.949Z,95.40
2018-03-08T08:20:56.823Z,95.50
2018-03-08T08:23:26.593Z,95.50
2018-03-08T08:25:52.708Z,78.00
2018-03-08T08:28:18.816Z,72.20
2018-03-08T08:30:44.908Z,69.60
2018-03-08T08:33:10.993Z,63.10
2018-03-08T08:35:37.160Z,56.30
2018-03-08T08:38:03.278Z,52.00
2018-03-08T08:40:34.186Z,53.90
2018-03-08T08:43:01.054Z,53.10
2018-03-08T08:45:27.177Z,53.10
2018-03-08T08:47:53.274Z,53.90
2018-03-08T08:50:20.113Z,52.50
2018-03-08T08:52:46.220Z,52.40
2018-03-08T08:55:12.353Z,52.40
2018-03-08T08:57:43.236Z,53.20
2018-03-08T09:00:09.356Z,53.20
2018-03-08T09:02:35.458Z,54.90
2018-03-08T09:05:01.575Z,52.60
2018-03-08T09:07:28.438Z,50.00
2018-03-08T09:09:54.828Z,50.00
2018-03-08T09:12:21.691Z,49.80
2018-03-08T09:14:49.966Z,49.50
2018-03-08T09:17:16.837Z,47.20
2018-03-08T09:19:43.687Z,49.50
2018-03-08T09:22:09.793Z,50.30
2018-03-08T09:24:36.659Z,48.20
2018-03-08T09:27:03.512Z,47.40
2018-03-08T09:29:30.365Z,47.00
2018-03-08T09:31:56.456Z,46.90
2018-03-08T09:34:24.912Z,41.70
2018-03-08T09:36:51.042Z,44.80
2018-03-08T09:39:17.880Z,43.30
2018-03-08T09:41:43.976Z,43.30
2018-03-08T09:44:10.079Z,43.70
2018-03-08T09:46:36.180Z,42.90
2018-03-08T09:49:02.324Z,42.10
2018-03-08T09:51:33.477Z,40.80
2018-03-08T09:53:59.803Z,39.20
2018-03-08T09:56:25.905Z,40.60
2018-03-08T09:58:52.782Z,39.90
2018-03-08T10:01:18.909Z,40.00
2018-03-08T10:03:45.036Z,40.70
2018-03-08T10:06:11.147Z,40.00
2018-03-08T10:08:37.254Z,39.20
2018-03-08T10:11:06.610Z,40.20
2018-03-08T10:13:32.714Z,40.10
2018-03-08T10:15:58.823Z,40.90
2018-03-08T10:18:24.932Z,37.20
2018-03-08T10:20:51.768Z,39.30
2018-03-08T10:23:17.875Z,39.20
2018-03-08T10:25:44.703Z,36.80
2018-03-08T10:28:10.915Z,36.90
2018-03-08T10:30:41.397Z,37.70
2018-03-08T10:33:07.500Z,37.20
2018-03-08T10:38:06.368Z,38.60
2018-03-08T10:43:04.412Z,34.60
2018-03-08T10:45:30.504Z,34.60
2018-03-08T10:47:56.598Z,32.40
2018-03-08T10:50:22.732Z,33.40
2018-03-08T10:52:48.809Z,31.90
2018-03-08T10:55:14.893Z,33.20
2018-03-08T10:57:40.989Z,32.80
2018-03-08T11:00:07.084Z,32.00
2018-03-08T11:02:40.714Z,32.70
2018-03-08T11:05:06.821Z,32.70
2018-03-08T11:07:32.927Z,33.80
2018-03-08T11:09:59.792Z,32.60
2018-03-08T11:12:25.889Z,32.60
2018-03-08T11:14:51.980Z,32.10
2018-03-08T11:17:18.065Z,33.10
2018-03-08T11:19:44.152Z,31.40
2018-03-08T11:22:10.296Z,31.00
2018-03-08T11:24:36.424Z,31.00
2018-03-08T11:27:02.512Z,29.70
2018-03-08T11:29:30.085Z,30.00
2018-03-08T11:31:56.193Z,29.80
2018-03-08T11:34:22.285Z,29.30
2018-03-08T11:36:49.128Z,28.90
2018-03-08T11:39:15.228Z,28.70
2018-03-08T11:41:41.333Z,28.40
2018-03-08T11:44:08.903Z,29.80
2018-03-08T11:46:33.546Z,29.40
2018-03-08T11:49:00.412Z,29.40
2018-03-08T11:51:32.814Z,28.60
2018-03-08T11:53:58.917Z,28.90
2018-03-08T11:56:25.135Z,29.40
2018-03-08T11:58:51.237Z,27.50
2018-03-08T12:01:17.338Z,27.40
2018-03-08T12:03:43.449Z,28.70
2018-03-08T12:06:10.268Z,27.50
2018-03-08T12:08:36.396Z,27.40
2018-03-08T12:11:02.524Z,26.70
2018-03-08T12:13:29.360Z,26.30
2018-03-08T12:15:55.453Z,26.30
2018-03-08T12:18:21.572Z,26.40
2018-03-08T12:20:50.052Z,25.50
2018-03-08T12:23:16.164Z,26.20
2018-03-08T12:25:42.243Z,26.50
2018-03-08T12:28:08.364Z,26.80
2018-03-08T12:30:34.501Z,27.20
2018-03-08T12:33:00.613Z,26.70
2018-03-08T12:35:26.711Z,26.20
2018-03-08T12:37:52.808Z,26.10
2018-03-08T12:40:18.916Z,25.90
2018-03-08T12:42:46.676Z,25.40
2018-03-08T12:45:12.947Z,23.90
2018-03-08T12:47:39.252Z,25.00
2018-03-08T12:50:05.596Z,27.80
2018-03-08T12:52:31.913Z,27.90
2018-03-08T12:54:58.212Z,29.90
2018-03-08T12:57:24.515Z,29.60
2018-03-08T12:59:50.836Z,30.90
2018-03-08T13:02:18.865Z,32.00
2018-03-08T13:04:45.173Z,34.30
2018-03-08T13:07:11.475Z,36.60
2018-03-08T13:09:37.790Z,39.70
2018-03-08T13:12:04.086Z,39.90
2018-03-08T13:14:31.167Z,43.70
2018-03-08T13:16:57.438Z,43.70
2018-03-08T13:19:28.625Z,45.60
2018-03-08T13:21:55.644Z,47.60
2018-03-08T13:24:21.933Z,47.60
2018-03-08T13:26:48.229Z,49.30
2018-03-08T13:29:14.521Z,48.50
2018-03-08T13:31:40.852Z,51.00
2018-03-08T13:34:07.157Z,52.60
2018-03-08T13:39:05.576Z,59.70
2018-03-08T13:41:32.691Z,62.20
2018-03-08T13:43:59.559Z,64.00
2018-03-08T13:46:25.721Z,63.30
2018-03-08T13:48:51.812Z,64.40
2018-03-08T13:51:17.908Z,64.70
2018-03-08T13:53:44.005Z,62.40
2018-03-08T13:56:10.871Z,64.30
2018-03-08T13:58:38.412Z,67.50
2018-03-08T14:01:05.365Z,71.80
2018-03-08T14:03:31.464Z,71.00
2018-03-08T14:05:57.544Z,69.70
2018-03-08T14:08:25.116Z,77.40
2018-03-08T14:10:51.273Z,77.40
2018-03-08T14:13:18.196Z,76.90
2018-03-08T14:15:44.288Z,76.90
2018-03-08T14:18:10.393Z,73.50
2018-03-08T14:20:36.487Z,78.00
2018-03-08T14:23:02.625Z,78.30
2018-03-08T14:25:28.736Z,81.00
2018-03-08T14:27:55.595Z,83.00
2018-03-08T14:30:21.750Z,82.90
2018-03-08T14:32:47.905Z,82.20
2018-03-08T14:35:14.020Z,82.90
2018-03-08T14:37:40.541Z,86.20
2018-03-08T14:40:07.650Z,87.40
2018-03-08T14:42:33.960Z,87.80
2018-03-08T14:45:00.216Z,89.80
2018-03-08T14:47:27.640Z,92.40
2018-03-08T14:49:53.835Z,92.40
2018-03-08T14:52:19.980Z,94.20
2018-03-08T14:54:46.071Z,94.10
2018-03-08T14:57:12.170Z,95.10
2018-03-08T14:59:38.400Z,93.80
2018-03-08T15:02:04.510Z,91.90
2018-03-08T15:04:30.620Z,93.80
2018-03-08T15:06:57.468Z,95.90
2018-03-08T15:09:23.549Z,95.80
2018-03-08T15:11:50.462Z,95.30
2018-03-08T15:14:16.690Z,95.30
2018-03-08T15:16:42.783Z,95.60
2018-03-08T15:19:09.825Z,95.30
2018-03-08T15:21:35.909Z,95.20
2018-03-08T15:24:02.844Z,94.10
2018-03-08T15:26:29.743Z,95.00
2018-03-08T15:28:55.879Z,95.00
2018-03-08T15:31:22.044Z,95.40
2018-03-08T15:33:48.264Z,95.00
2018-03-08T15:36:14.387Z,95.10
2018-03-08T15:38:41.321Z,93.50
2018-03-08T15:41:08.932Z,93.30
2018-03-08T15:43:35.089Z,93.20
2018-03-08T15:46:01.200Z,93.10
2018-03-08T15:48:27.305Z,93.40
2018-03-08T15:50:53.533Z,92.90
2018-03-08T15:53:19.692Z,92.70
2018-03-08T15:55:45.892Z,93.50
2018-03-08T16:01:04.299Z,93.40
2018-03-08T16:03:30.582Z,93.70
2018-03-08T16:05:57.418Z,94.90
2018-03-08T16:08:45.851Z,94.80
2018-03-08T16:11:12.194Z,93.60
2018-03-08T16:13:38.384Z,92.10
2018-03-08T16:16:04.512Z,90.00
2018-03-08T16:18:30.671Z,86.30
2018-03-08T16:20:57.557Z,81.00
2018-03-08T16:23:24.220Z,80.90
2018-03-08T16:25:50.936Z,81.10
2018-03-08T16:28:17.254Z,80.70
2018-03-08T16:30:44.336Z,83.40
2018-03-08T16:33:11.581Z,85.10
2018-03-08T16:35:37.908Z,84.90
2018-03-08T16:38:04.255Z,83.50
2018-03-08T16:40:30.578Z,85.20
2018-03-08T16:42:56.910Z,84.70
2018-03-08T16:45:23.209Z,82.90
2018-03-08T16:47:49.518Z,82.90
2018-03-08T16:50:15.890Z,81.80
2018-03-08T16:52:42.670Z,82.40
2018-03-08T16:55:08.984Z,78.20
2018-03-08T16:57:35.354Z,79.10
2018-03-08T17:00:01.690Z,76.50
2018-03-08T17:02:28.732Z,76.80
2018-03-08T17:04:56.529Z,74.80
2018-03-08T17:07:22.830Z,74.80
2018-03-08T17:09:49.163Z,75.40
2018-03-08T17:12:15.475Z,75.30
2018-03-08T17:14:42.582Z,75.90
2018-03-08T17:17:09.584Z,75.00
2018-03-08T17:19:36.096Z,74.90
2018-03-08T17:22:02.405Z,74.80
2018-03-08T17:24:29.772Z,75.20
2018-03-08T17:26:56.104Z,75.10
2018-03-08T17:29:22.464Z,75.80
2018-03-08T17:31:48.826Z,75.80
2018-03-08T17:34:15.165Z,75.40
2018-03-08T17:36:41.691Z,78.50
2018-03-08T17:39:08.093Z,78.70
2018-03-08T17:41:35.268Z,77.60
2018-03-08T17:44:01.717Z,77.60
2018-03-08T17:46:28.029Z,75.10
2018-03-08T17:48:54.336Z,74.70
2018-03-08T17:51:20.643Z,72.80
2018-03-08T17:53:46.922Z,72.80
2018-03-08T17:56:13.224Z,74.70
2018-03-08T17:58:39.524Z,72.70
2018-03-08T18:01:05.836Z,73.40
2018-03-08T18:03:32.957Z,72.60
2018-03-08T18:05:59.268Z,73.00
2018-03-08T18:08:25.571Z,72.30
2018-03-08T18:10:52.616Z,70.70
2018-03-08T18:13:18.941Z,70.70
2018-03-08T18:15:45.996Z,71.30
2018-03-08T18:18:12.420Z,71.30
2018-03-08T18:20:38.707Z,74.00
2018-03-08T18:23:05.091Z,73.40
2018-03-08T18:25:32.783Z,72.50
2018-03-08T18:27:59.089Z,73.20
2018-03-08T18:30:25.418Z,75.00
2018-03-08T18:32:51.804Z,74.90
2018-03-08T18:35:19.235Z,77.10
2018-03-08T18:37:45.525Z,77.10
2018-03-08T18:40:11.853Z,77.40
2018-03-08T18:42:38.942Z,77.20
2018-03-08T18:45:05.291Z,77.20
2018-03-08T18:47:31.627Z,77.20
2018-03-08T18:49:58.080Z,76.90
2018-03-08T18:52:24.512Z,80.30
2018-03-08T18:54:50.801Z,81.10
2018-03-08T18:57:17.180Z,79.80
2018-03-08T18:59:43.444Z,82.00
2018-03-08T19:02:11.600Z,83.00
2018-03-08T19:04:38.687Z,84.90
2018-03-08T19:07:05.077Z,84.80
2018-03-08T19:09:32.132Z,83.80
2018-03-08T19:11:58.461Z,83.80
2018-03-08T19:14:24.776Z,83.70
2018-03-08T19:16:51.269Z,83.60
2018-03-08T19:19:18.576Z,77.00
2018-03-08T19:21:45.989Z,80.00
2018-03-08T19:24:12.097Z,80.20
2018-03-08T19:26:38.232Z,84.10
2018-03-08T19:29:04.324Z,79.00
2018-03-08T19:31:31.257Z,69.90
2018-03-08T19:33:57.395Z,69.90
2018-03-08T19:36:23.505Z,74.50
2018-03-08T19:38:49.609Z,71.90
2018-03-08T19:41:15.922Z,72.80
2018-03-08T19:43:42.224Z,74.90
2018-03-08T19:46:08.555Z,73.70
2018-03-08T19:48:34.930Z,74.70
2018-03-08T19:51:01.428Z,77.60
2018-03-08T19:53:27.716Z,77.70
2018-03-08T19:55:54.001Z,78.80
2018-03-08T19:58:20.381Z,81.10
2018-03-08T20:00:46.708Z,81.10
2018-03-08T20:03:12.996Z,82.90
2018-03-08T20:05:39.327Z,83.90
2018-03-08T20:08:05.698Z,84.30
2018-03-08T20:10:32.047Z,86.30
2018-03-08T20:12:58.360Z,85.00
2018-03-08T20:15:24.836Z,84.70
2018-03-08T20:17:51.259Z,84.70
2018-03-08T20:20:17.571Z,85.50
2018-03-08T20:22:44.724Z,86.50
2018-03-08T20:25:11.052Z,86.40
2018-03-08T20:27:37.352Z,88.10
2018-03-08T20:30:03.761Z,87.60
2018-03-08T20:32:30.127Z,89.20
2018-03-08T20:34:56.494Z,89.90
2018-03-08T20:37:22.820Z,91.10
2018-03-08T20:39:49.301Z,91.40
2018-03-08T20:42:16.525Z,93.50
2018-03-08T20:44:43.431Z,93.50
2018-03-08T20:47:10.545Z,93.90
2018-03-08T20:49:36.932Z,93.90
2018-03-08T20:52:03.390Z,93.90
2018-03-08T20:54:30.569Z,93.90
2018-03-08T20:56:57.668Z,93.80
2018-03-08T20:59:23.820Z,93.80
2018-03-08T21:01:49.920Z,93.80
2018-03-08T21:04:16.234Z,93.60
2018-03-08T21:06:42.661Z,93.40
2018-03-08T21:09:09.070Z,93.40
2018-03-08T21:11:35.553Z,93.30
2018-03-08T21:14:02.832Z,92.70
2018-03-08T21:16:29.260Z,92.60
2018-03-08T21:18:56.236Z,92.30
2018-03-08T21:21:22.541Z,92.40
2018-03-08T21:23:48.876Z,92.10
2018-03-08T21:26:15.944Z,92.10
2018-03-08T21:28:42.395Z,92.10
2018-03-08T21:31:08.732Z,91.90
2018-03-08T21:33:35.261Z,92.10
2018-03-08T21:38:52.660Z,91.50
2018-03-08T21:41:19.014Z,91.60
2018-03-08T21:43:45.453Z,91.60
2018-03-08T21:46:11.865Z,91.50
2018-03-08T21:48:38.317Z,91.10
2018-03-08T21:51:04.650Z,91.20
2018-03-08T21:53:31.111Z,91.10
2018-03-08T21:55:57.464Z,90.80
2018-03-08T21:58:23.752Z,90.80
2018-03-08T22:00:50.856Z,90.30
2018-03-08T22:03:17.171Z,90.30
2018-03-08T22:05:44.378Z,87.50
2018-03-08T22:08:10.680Z,87.50
2018-03-08T22:10:37.737Z,85.20
2018-03-08T22:13:04.148Z,85.20
2018-03-08T22:15:30.436Z,84.00
2018-03-08T22:17:56.752Z,82.20
2018-03-08T22:20:23.797Z,81.20
2018-03-08T22:22:50.992Z,81.00
2018-03-08T22:25:18.083Z,80.00
2018-03-08T22:27:44.384Z,79.90
2018-03-08T22:30:10.768Z,79.00
2018-03-08T22:32:36.852Z,78.20
2018-03-08T22:35:03.912Z,76.50
2018-03-08T22:37:30.761Z,73.70
2018-03-08T22:39:56.885Z,73.70
2018-03-08T22:42:22.974Z,72.70
2018-03-08T22:44:49.080Z,72.70
2018-03-08T22:47:16.138Z,71.70
2018-03-08T22:49:43.171Z,71.70
2018-03-08T22:52:09.448Z,71.60
2018-03-08T22:54:36.687Z,71.60
2018-03-08T22:57:03.012Z,71.60
2018-03-08T22:59:29.365Z,72.60
2018-03-08T23:02:11.624Z,71.00
2018-03-08T23:04:37.916Z,71.10
2018-03-08T23:07:04.245Z,71.30
2018-03-08T23:09:31.500Z,71.20
2018-03-08T23:11:57.636Z,71.10
2018-03-08T23:14:23.956Z,70.80
2018-03-08T23:16:50.273Z,72.00
2018-03-08T23:19:16.637Z,72.20
2018-03-08T23:21:43.044Z,72.50
2018-03-08T23:24:09.156Z,70.70
2018-03-08T23:26:35.426Z,69.90
2018-03-08T23:29:02.387Z,69.40
2018-03-08T23:31:28.607Z,69.40
2018-03-08T23:33:55.656Z,71.40
2018-03-08T23:36:21.747Z,71.60
2018-03-08T23:38:48.598Z,70.10
2018-03-08T23:41:15.637Z,72.20
2018-03-08T23:43:43.228Z,74.70
2018-03-08T23:46:09.328Z,74.50
2018-03-08T23:48:35.476Z,72.70
2018-03-08T23:51:01.722Z,72.20
2018-03-08T23:53:27.817Z,73.50
2018-03-08T23:55:53.922Z,73.50
2018-03-08T23:58:20.046Z,73.20
